createdAt,value
2022-12-13T00:01:12.205Z,21.73
2022-12-13T00:06:14.884Z,23.83
2022-12-13T00:11:16.868Z,25.58
2022-12-13T00:16:22.878Z,24.98
2022-12-13T00:21:30.357Z,20.80
2022-12-13T00:26:33.022Z,24.60
2022-12-13T00:37:00.739Z,23.42
2022-12-13T00:42:02.669Z,25.20
2022-12-13T00:47:04.519Z,22.13
2022-12-13T00:52:06.401Z,23.73
2022-12-13T00:57:08.211Z,24.05
2022-12-13T01:02:10.038Z,28.02
2022-12-13T01:07:11.876Z,26.95
2022-12-13T01:12:13.745Z,21.98
2022-12-13T01:17:15.839Z,23.35
2022-12-13T01:22:17.800Z,27.35
2022-12-13T01:27:19.696Z,26.88
2022-12-13T01:32:21.557Z,31.40
2022-12-13T01:37:26.163Z,26.63
2022-12-13T01:42:28.157Z,27.42
2022-12-13T01:47:45.597Z,24.70
2022-12-13T01:52:49.109Z,30.38
2022-12-13T01:57:55.146Z,29.00
2022-12-13T02:02:59.463Z,27.35
2022-12-13T02:08:03.318Z,32.47
2022-12-13T02:13:05.718Z,22.65
2022-12-13T02:18:37.602Z,23.58
2022-12-13T02:24:08.802Z,25.27
2022-12-13T02:29:34.197Z,31.88
2022-12-13T02:34:55.805Z,22.77
2022-12-13T02:40:05.342Z,22.55
2022-12-13T02:45:20.238Z,23.27
2022-12-13T02:50:24.945Z,26.35
2022-12-13T02:55:28.383Z,27.23
2022-12-13T03:00:57.176Z,27.90
2022-12-13T03:06:34.144Z,23.33
2022-12-13T03:12:18.482Z,25.65
2022-12-13T03:17:21.731Z,23.08
2022-12-13T03:22:23.523Z,27.17
2022-12-13T03:27:25.367Z,22.23
2022-12-13T03:32:27.183Z,19.40
2022-12-13T03:37:29.499Z,17.77
2022-12-13T03:42:31.405Z,25.20
2022-12-13T03:47:33.200Z,22.58
2022-12-13T03:52:34.994Z,20.90
2022-12-13T03:57:36.884Z,22.55
2022-12-13T04:02:38.905Z,19.92
2022-12-13T04:07:40.918Z,20.75
2022-12-13T04:13:08.934Z,22.17
2022-12-13T04:18:10.768Z,22.67
2022-12-13T04:23:12.699Z,22.23
2022-12-13T04:28:22.114Z,22.95
2022-12-13T04:33:25.082Z,25.52
2022-12-13T04:38:27.634Z,27.95
2022-12-13T04:43:29.460Z,26.15
2022-12-13T04:48:32.580Z,23.65
2022-12-13T04:53:34.418Z,24.65
2022-12-13T04:58:36.382Z,24.63
2022-12-13T05:03:39.405Z,30.00
2022-12-13T05:08:41.443Z,26.15
2022-12-13T05:13:43.265Z,29.05
2022-12-13T05:18:45.072Z,28.08
2022-12-13T05:23:46.884Z,19.20
2022-12-13T05:28:48.946Z,28.50
2022-12-13T05:33:52.008Z,22.75
2022-12-13T05:38:54.049Z,28.20
2022-12-13T05:43:55.907Z,29.23
2022-12-13T05:48:58.272Z,25.02
2022-12-13T05:54:00.094Z,27.25
2022-12-13T05:59:01.916Z,28.40
2022-12-13T06:04:03.754Z,24.02
2022-12-13T06:09:05.583Z,28.23
2022-12-13T06:14:22.756Z,25.73
2022-12-13T06:19:25.137Z,31.73
2022-12-13T06:24:27.900Z,32.65
2022-12-13T06:29:29.708Z,27.58
2022-12-13T06:34:35.810Z,26.90
2022-12-13T06:39:38.427Z,30.40
2022-12-13T06:44:42.030Z,27.02
2022-12-13T06:49:44.810Z,21.63
2022-12-13T06:54:47.377Z,25.08
2022-12-13T06:59:49.327Z,24.77
2022-12-13T07:04:52.011Z,23.25
2022-12-13T07:09:54.210Z,25.00
2022-12-13T07:14:56.326Z,17.58
2022-12-13T07:19:58.327Z,24.25
2022-12-13T07:25:05.001Z,18.55
2022-12-13T07:30:07.233Z,19.80
2022-12-13T07:35:09.318Z,22.60
2022-12-13T07:40:11.624Z,18.50
2022-12-13T07:45:13.482Z,25.50
2022-12-13T07:50:25.125Z,26.40
2022-12-13T07:55:33.641Z,22.20
2022-12-13T08:00:38.942Z,22.20
2022-12-13T08:05:40.883Z,32.80
2022-12-13T08:10:42.735Z,24.63
2022-12-13T08:15:44.767Z,27.27
2022-12-13T08:20:46.637Z,20.48
2022-12-13T08:25:55.015Z,20.70
2022-12-13T08:31:06.753Z,15.20
2022-12-13T08:36:16.696Z,20.77
2022-12-13T08:41:18.875Z,19.88
2022-12-13T08:46:20.765Z,20.55
2022-12-13T08:51:28.378Z,18.35
2022-12-13T08:56:36.241Z,18.90
2022-12-13T09:01:38.098Z,15.93
2022-12-13T09:06:42.424Z,16.55
2022-12-13T09:11:44.324Z,13.32
2022-12-13T09:16:50.637Z,10.65
2022-12-13T09:21:53.303Z,9.07
2022-12-13T09:27:09.484Z,10.80
2022-12-13T09:32:11.958Z,12.85
2022-12-13T09:37:13.823Z,10.68
2022-12-13T09:42:30.560Z,13.95
2022-12-13T09:47:47.579Z,16.48
2022-12-13T09:52:49.670Z,15.25
2022-12-13T09:57:52.903Z,18.63
2022-12-13T10:03:00.308Z,16.95
2022-12-13T10:08:20.880Z,20.58
2022-12-13T10:13:49.172Z,15.00
2022-12-13T10:18:51.155Z,18.60
2022-12-13T10:24:23.222Z,14.63
2022-12-13T10:29:15.003Z,15.73
2022-12-13T10:34:29.722Z,9.75
2022-12-13T10:39:42.783Z,10.23
2022-12-13T10:44:46.448Z,8.70
2022-12-13T10:49:59.448Z,11.32
2022-12-13T10:55:22.723Z,16.85
2022-12-13T11:00:37.193Z,13.02
2022-12-13T11:05:40.773Z,19.48
2022-12-13T11:10:43.278Z,15.25
2022-12-13T11:15:45.481Z,13.68
2022-12-13T11:21:09.503Z,10.63
2022-12-13T11:26:17.390Z,9.52
2022-12-13T11:31:29.624Z,7.05
2022-12-13T11:36:39.269Z,7.45
2022-12-13T11:42:01.479Z,8.18
2022-12-13T11:47:11.384Z,10.23
2022-12-13T11:52:50.304Z,8.52
2022-12-13T11:57:59.528Z,10.27
2022-12-13T12:03:21.802Z,12.38
2022-12-13T12:08:59.177Z,12.40
2022-12-13T12:14:22.613Z,13.43
2022-12-13T12:19:29.212Z,8.52
2022-12-13T12:24:56.017Z,11.45
2022-12-13T12:30:04.033Z,10.65
2022-12-13T12:35:45.877Z,9.48
2022-12-13T12:47:08.655Z,11.52
2022-12-13T12:52:23.079Z,11.15
2022-12-13T12:57:30.593Z,7.57
2022-12-13T13:02:53.876Z,11.60
2022-12-13T13:08:01.908Z,12.60
2022-12-13T13:13:13.028Z,10.95
2022-12-13T13:23:41.302Z,13.25
2022-12-13T13:28:43.662Z,12.50
2022-12-13T13:33:50.414Z,17.83
2022-12-13T13:38:53.841Z,15.00
2022-12-13T13:43:55.786Z,16.95
2022-12-13T13:49:04.690Z,18.20
2022-12-13T13:54:32.787Z,18.48
2022-12-13T14:00:02.961Z,24.77
2022-12-13T14:05:45.368Z,19.85
2022-12-13T14:11:15.108Z,20.77
2022-12-13T14:16:54.623Z,25.20
2022-12-13T14:22:18.023Z,26.40
2022-12-13T14:27:33.519Z,32.42
2022-12-13T14:32:39.237Z,52.17
2022-12-13T14:37:42.118Z,58.05
2022-12-13T14:42:48.009Z,30.58
2022-12-13T14:47:50.658Z,27.63
2022-12-13T14:52:53.986Z,22.52
2022-12-13T14:57:57.890Z,20.08
2022-12-13T15:03:02.084Z,24.23
2022-12-13T15:08:11.050Z,25.63
2022-12-13T15:18:25.171Z,21.98
2022-12-13T15:23:49.137Z,23.58
2022-12-13T15:29:09.687Z,30.17
2022-12-13T15:34:28.885Z,23.85
2022-12-13T15:44:52.821Z,26.58
2022-12-13T15:49:56.751Z,27.85
2022-12-13T15:55:02.128Z,24.63
2022-12-13T16:00:07.768Z,25.02
2022-12-13T16:05:26.140Z,24.20
2022-12-13T16:10:29.119Z,26.48
2022-12-13T16:15:52.295Z,23.58
2022-12-13T16:21:02.411Z,26.25
2022-12-13T16:26:08.747Z,21.23
2022-12-13T16:31:23.318Z,37.05
2022-12-13T16:36:26.320Z,42.00
2022-12-13T16:41:28.327Z,44.88
2022-12-13T16:47:16.254Z,36.88
2022-12-13T16:51:52.837Z,45.03
2022-12-13T16:56:54.947Z,45.95
2022-12-13T17:01:56.952Z,46.25
2022-12-13T17:06:58.864Z,51.53
2022-12-13T17:12:00.716Z,52.25
2022-12-13T17:17:02.596Z,50.45
2022-12-13T17:22:04.826Z,30.00
2022-12-13T17:27:06.637Z,30.48
2022-12-13T17:32:08.617Z,30.88
2022-12-13T17:37:10.959Z,24.77
2022-12-13T17:42:13.071Z,29.85
2022-12-13T17:47:15.049Z,42.58
2022-12-13T17:52:17.161Z,57.65
2022-12-13T17:57:19.027Z,45.55
2022-12-13T18:02:23.103Z,46.92
2022-12-13T18:07:24.959Z,36.60
2022-12-13T18:12:27.064Z,74.95
2022-12-13T18:18:08.892Z,45.10
2022-12-13T18:22:52.335Z,44.08
2022-12-13T18:28:00.699Z,44.28
2022-12-13T18:33:04.786Z,42.90
2022-12-13T18:38:06.748Z,40.55
2022-12-13T18:43:08.611Z,50.78
2022-12-13T18:48:10.765Z,47.97
2022-12-13T18:53:12.674Z,55.70
2022-12-13T18:58:14.488Z,43.40
2022-12-13T19:03:16.406Z,39.60
2022-12-13T19:08:18.316Z,42.95
2022-12-13T19:13:20.693Z,39.88
2022-12-13T19:18:22.948Z,50.67
2022-12-13T19:23:25.146Z,42.78
2022-12-13T19:28:27.283Z,44.28
2022-12-13T19:33:29.342Z,48.50
2022-12-13T19:38:31.330Z,43.38
2022-12-13T19:43:33.185Z,45.75
2022-12-13T19:48:37.819Z,41.33
2022-12-13T19:53:41.604Z,48.28
2022-12-13T19:58:44.066Z,38.95
2022-12-13T20:03:46.694Z,48.58
2022-12-13T20:08:49.488Z,53.80
2022-12-13T20:13:54.802Z,63.33
2022-12-13T20:18:58.612Z,60.17
2022-12-13T20:24:00.484Z,58.63
2022-12-13T20:29:02.789Z,51.00
2022-12-13T20:34:14.160Z,49.42
2022-12-13T20:39:16.006Z,59.08
2022-12-13T20:44:17.912Z,39.78
2022-12-13T20:49:19.977Z,48.08
2022-12-13T20:54:21.822Z,61.88
2022-12-13T20:59:23.663Z,106.38
2022-12-13T21:04:25.769Z,108.63
2022-12-13T21:09:27.569Z,91.55
2022-12-13T21:14:30.217Z,66.18
2022-12-13T21:19:39.759Z,48.28
2022-12-13T21:24:41.907Z,37.70
2022-12-13T21:29:43.808Z,38.88
2022-12-13T21:34:45.641Z,37.63
2022-12-13T21:39:47.641Z,33.33
2022-12-13T21:44:49.491Z,35.78
2022-12-13T21:49:51.666Z,34.00
2022-12-13T21:55:15.210Z,27.85
2022-12-13T22:00:16.351Z,31.50
2022-12-13T22:05:18.287Z,29.00
2022-12-13T22:10:20.142Z,41.95
2022-12-13T22:15:21.977Z,27.92
2022-12-13T22:20:23.858Z,32.00
2022-12-13T22:25:26.056Z,30.20
2022-12-13T22:30:28.023Z,26.45
2022-12-13T22:35:29.879Z,28.60
2022-12-13T22:40:32.057Z,34.70
2022-12-13T22:45:33.919Z,34.08
2022-12-13T22:50:36.778Z,41.50
2022-12-13T22:55:38.653Z,35.78
2022-12-13T23:00:40.535Z,23.48
2022-12-13T23:05:42.383Z,24.05
2022-12-13T23:11:02.745Z,28.98
2022-12-13T23:16:07.009Z,32.67
2022-12-13T23:21:08.879Z,36.58
2022-12-13T23:26:15.256Z,33.13
2022-12-13T23:31:18.024Z,24.92
2022-12-13T23:36:22.221Z,23.52
2022-12-13T23:41:32.309Z,30.30
2022-12-13T23:46:36.424Z,30.25
2022-12-13T23:51:38.584Z,18.15
2022-12-13T23:56:40.390Z,27.65
